Mills, Nebraska
Current Conditions -  °F | °C
As of 9:53 PM on Friday 19 Dec 2014 (Local Time) from KICR Reporting Station
Clear Clear  
Wind Chill: 20°   Ceiling: Unl
Heat Index: 28°   Visibility: 10mi
Dew Point: 22°   Wind: 8mph
Humidity: 78%   Direction: 220°SW
Pressure: 29.98"   Gusts: NA
Location:  42.94°N, 99.44°W
Report Text: KICR 200353Z AUTO 22007KT 10SM CLR M02/M06 A2998 RMK AO2 SLP178 T10221056
Loading
Personal Weather Stations






























Interactive Weather Map New forecast layout! Learn more

10-Day Weather Forecast

Advertisements
Track Severe Weather on mobile